Terminal Aerodrome Forecast
Issued by NWS

Home | Current Version | Previous Version | Text Only | Print | Product List | Glossary On
Versions: 1 2 3 4 5 6 7 8 9 10 11 12 13 14 15 16 17 18 19 20 21 22 23 24 25 26 27 28 29 30 31 32 33 34 35 36 37 38 39 40 41 42 43 44 45 46 47 48
882
FTUS45 KBOU 201720
TAFBJC
TAF
KBJC 201720Z 2018/2118 33006KT P6SM SCT050 BKN100
     FM202000 07009KT P6SM VCSH SCT020 BKN040 OVC070
     FM202200 02009KT P6SM -SHRA BKN030 OVC050
     FM210100 05007KT 4SM -RASN BR SCT006 OVC012
     FM210400 03007KT 2SM -SN BR OVC003
      TEMPO 2106/2110 3/4SM -SN BR OVC001
     FM211000 34006KT 1SM -SN BR OVC001
     FM211400 02006KT 3SM -SN BR SCT005 BKN015=

USA.gov is the U.S. government's official web portal to all federal, state and local government web resources and services.